createdAt,value
2023-04-07T00:02:00.546Z,10.30
2023-04-07T00:04:30.353Z,10.30
2023-04-07T00:07:01.148Z,10.40
2023-04-07T00:09:30.688Z,10.40
2023-04-07T00:12:02.032Z,10.60
2023-04-07T00:14:31.491Z,10.80
2023-04-07T00:17:01.145Z,10.80
2023-04-07T00:19:30.725Z,10.70
2023-04-07T00:22:00.295Z,10.70
2023-04-07T00:24:34.332Z,10.80
2023-04-07T00:27:01.170Z,10.90
2023-04-07T00:29:30.645Z,10.90
2023-04-07T00:32:00.118Z,10.90
2023-04-07T00:34:30.541Z,10.90
2023-04-07T00:37:00.036Z,10.90
2023-04-07T00:39:29.950Z,10.80
2023-04-07T00:41:59.467Z,10.80
2023-04-07T00:44:29.017Z,10.80
2023-04-07T00:46:58.490Z,10.70
2023-04-07T00:49:29.910Z,10.70
2023-04-07T00:52:00.194Z,10.70
2023-04-07T00:54:31.606Z,10.60
2023-04-07T00:57:01.829Z,10.60
2023-04-07T00:59:32.758Z,10.50
2023-04-07T01:02:17.558Z,10.50
2023-04-07T01:05:11.781Z,10.50
2023-04-07T01:07:45.058Z,10.50
2023-04-07T01:10:19.799Z,10.40
2023-04-07T01:12:59.796Z,10.30
2023-04-07T01:15:31.788Z,10.30
2023-04-07T01:18:08.694Z,10.20
2023-04-07T01:20:39.804Z,10.00
2023-04-07T01:23:10.064Z,10.00
2023-04-07T01:25:59.289Z,9.80
2023-04-07T01:28:51.011Z,9.90
2023-04-07T01:31:21.660Z,9.90
2023-04-07T01:33:53.074Z,9.90
2023-04-07T01:36:24.905Z,9.90
2023-04-07T01:38:55.614Z,9.90
2023-04-07T01:41:26.956Z,9.90
2023-04-07T01:43:57.477Z,10.00
2023-04-07T01:46:27.777Z,10.00
2023-04-07T01:48:58.828Z,10.00
2023-04-07T01:51:29.942Z,9.90
2023-04-07T01:54:02.950Z,9.90
2023-04-07T01:56:32.579Z,9.90
2023-04-07T01:59:03.110Z,9.90
2023-04-07T02:01:32.809Z,9.90
2023-04-07T02:04:29.872Z,9.90
2023-04-07T02:07:06.002Z,9.80
2023-04-07T02:09:40.652Z,9.80
2023-04-07T02:12:14.049Z,9.80
2023-04-07T02:14:46.046Z,9.70
2023-04-07T02:17:18.658Z,9.70
2023-04-07T02:19:48.822Z,9.70
2023-04-07T02:22:19.237Z,9.60
2023-04-07T02:25:40.475Z,9.50
2023-04-07T02:28:10.006Z,9.50
2023-04-07T02:30:39.548Z,9.50
2023-04-07T02:33:09.370Z,9.50
2023-04-07T02:35:38.883Z,9.40
2023-04-07T02:38:08.365Z,9.40
2023-04-07T02:40:38.644Z,9.50
2023-04-07T02:43:08.825Z,9.50
2023-04-07T02:45:38.416Z,9.40
2023-04-07T02:48:08.018Z,9.30
2023-04-07T02:50:39.016Z,9.40
2023-04-07T02:53:08.563Z,9.30
2023-04-07T02:55:38.612Z,9.40
2023-04-07T02:58:08.150Z,9.30
2023-04-07T03:00:39.445Z,9.30
2023-04-07T03:03:19.509Z,9.20
2023-04-07T03:06:00.721Z,9.20
2023-04-07T03:08:30.735Z,9.10
2023-04-07T03:11:00.961Z,9.20
2023-04-07T03:13:32.606Z,9.10
2023-04-07T03:16:03.248Z,9.20
2023-04-07T03:18:34.436Z,9.20
2023-04-07T03:21:04.531Z,9.10
2023-04-07T03:23:34.229Z,9.00
2023-04-07T03:26:04.455Z,9.00
2023-04-07T03:28:35.646Z,9.10
2023-04-07T03:31:05.860Z,9.00
2023-04-07T03:33:36.673Z,8.90
2023-04-07T03:36:06.912Z,9.00
2023-04-07T03:38:36.716Z,8.80
2023-04-07T03:41:06.613Z,8.80
2023-04-07T03:43:36.823Z,8.70
2023-04-07T03:46:06.509Z,8.70
2023-04-07T03:48:36.609Z,8.70
2023-04-07T03:51:07.869Z,8.50
2023-04-07T03:53:37.531Z,8.60
2023-04-07T03:56:11.563Z,8.60
2023-04-07T03:58:43.020Z,8.70
2023-04-07T04:01:14.323Z,8.70
2023-04-07T04:03:46.306Z,8.60
2023-04-07T04:06:27.284Z,8.00
2023-04-07T04:08:58.903Z,7.80
2023-04-07T04:11:28.507Z,8.20
2023-04-07T04:14:00.452Z,8.30
2023-04-07T04:16:31.845Z,8.40
2023-04-07T04:19:03.784Z,8.50
2023-04-07T04:21:34.198Z,8.50
2023-04-07T04:24:04.675Z,8.50
2023-04-07T04:26:35.448Z,8.40
2023-04-07T04:29:06.799Z,8.30
2023-04-07T04:31:36.966Z,8.30
2023-04-07T04:34:07.165Z,8.40
2023-04-07T04:36:38.448Z,8.30
2023-04-07T04:39:08.684Z,8.20
2023-04-07T04:41:38.854Z,8.20
2023-04-07T04:44:09.063Z,8.20
2023-04-07T04:46:41.429Z,8.30
2023-04-07T04:49:11.557Z,8.20
2023-04-07T04:51:42.152Z,8.30
2023-04-07T04:54:13.318Z,8.20
2023-04-07T04:56:43.089Z,8.10
2023-04-07T04:59:13.421Z,8.10
2023-04-07T05:01:48.226Z,8.10
2023-04-07T05:04:18.763Z,8.00
2023-04-07T05:06:50.696Z,8.00
2023-04-07T05:09:21.697Z,8.00
2023-04-07T05:11:51.703Z,7.90
2023-04-07T05:14:22.884Z,7.90
2023-04-07T05:16:54.801Z,7.90
2023-04-07T05:19:27.224Z,7.80
2023-04-07T05:21:57.591Z,7.50
2023-04-07T05:24:30.970Z,7.60
2023-04-07T05:27:03.260Z,7.70
2023-04-07T05:29:33.078Z,7.50
2023-04-07T05:32:03.774Z,7.70
2023-04-07T05:34:33.901Z,7.80
2023-04-07T05:37:03.459Z,7.70
2023-04-07T05:39:34.012Z,7.90
2023-04-07T05:42:04.895Z,7.90
2023-04-07T05:44:35.064Z,7.80
2023-04-07T05:47:06.261Z,7.90
2023-04-07T05:49:37.460Z,7.80
2023-04-07T05:52:08.875Z,7.80
2023-04-07T05:54:41.802Z,7.80
2023-04-07T05:57:13.147Z,7.90
2023-04-07T05:59:44.902Z,7.80
2023-04-07T06:02:15.057Z,7.80
2023-04-07T06:04:46.985Z,7.80
2023-04-07T06:07:18.392Z,7.90
2023-04-07T06:09:48.159Z,8.00
2023-04-07T06:12:18.162Z,7.90
2023-04-07T06:14:51.784Z,7.80
2023-04-07T06:17:21.385Z,7.70
2023-04-07T06:19:52.001Z,7.50
2023-04-07T06:22:21.921Z,7.80
2023-04-07T06:24:51.956Z,7.50
2023-04-07T06:27:23.182Z,7.30
2023-04-07T06:29:52.737Z,7.70
2023-04-07T06:32:22.229Z,7.70
2023-04-07T06:34:52.514Z,7.90
2023-04-07T06:37:24.165Z,8.10
2023-04-07T06:39:53.788Z,8.20
2023-04-07T06:42:23.268Z,8.20
2023-04-07T06:44:54.995Z,8.20
2023-04-07T06:47:24.505Z,8.40
2023-04-07T06:49:54.048Z,8.90
2023-04-07T06:52:23.647Z,8.90
2023-04-07T06:54:53.123Z,8.80
2023-04-07T06:57:23.623Z,8.90
2023-04-07T06:59:53.087Z,9.40
2023-04-07T07:02:22.703Z,10.00
2023-04-07T07:04:52.921Z,10.60
2023-04-07T07:07:22.406Z,10.40
2023-04-07T07:09:52.057Z,11.00
2023-04-07T07:12:21.668Z,11.20
2023-04-07T07:14:51.215Z,10.50
2023-04-07T07:17:20.761Z,10.80
2023-04-07T07:19:50.618Z,10.60
2023-04-07T07:22:20.088Z,10.80
2023-04-07T07:24:49.650Z,10.90
2023-04-07T07:27:19.689Z,11.20
2023-04-07T07:29:52.473Z,11.90
2023-04-07T07:32:22.090Z,12.00
2023-04-07T07:34:51.642Z,12.70
2023-04-07T07:37:21.115Z,12.40
2023-04-07T07:39:50.756Z,12.50
2023-04-07T07:42:20.363Z,12.60
2023-04-07T07:44:49.853Z,13.50
2023-04-07T07:47:19.546Z,13.60
2023-04-07T07:49:49.077Z,13.70
2023-04-07T07:52:19.007Z,13.80
2023-04-07T07:54:50.227Z,13.80
2023-04-07T07:57:19.733Z,14.70
2023-04-07T07:59:50.032Z,14.50
2023-04-07T08:02:22.111Z,14.90
2023-04-07T08:04:52.127Z,15.00
2023-04-07T08:07:22.146Z,15.50
2023-04-07T08:09:51.742Z,15.60
2023-04-07T08:12:21.734Z,15.30
2023-04-07T08:14:51.351Z,15.90
2023-04-07T08:17:20.929Z,16.30
2023-04-07T08:19:50.627Z,16.30
2023-04-07T08:22:22.744Z,16.80
2023-04-07T08:24:52.518Z,16.20
2023-04-07T08:27:22.043Z,16.20
2023-04-07T08:30:03.979Z,16.80
2023-04-07T08:32:38.046Z,17.30
2023-04-07T08:35:08.349Z,17.10
2023-04-07T08:37:39.408Z,16.30
2023-04-07T08:40:10.792Z,16.80
2023-04-07T08:42:43.829Z,17.50
2023-04-07T08:45:15.118Z,17.70
2023-04-07T08:47:48.471Z,17.50
2023-04-07T08:50:18.709Z,17.60
2023-04-07T08:52:53.879Z,17.90
2023-04-07T08:55:24.107Z,17.90
2023-04-07T08:57:55.585Z,17.70
2023-04-07T09:00:25.595Z,17.70
2023-04-07T09:02:58.918Z,18.00
2023-04-07T09:05:28.886Z,18.70
2023-04-07T09:07:58.352Z,18.50
2023-04-07T09:10:28.168Z,19.10
2023-04-07T09:13:00.617Z,19.00
2023-04-07T09:15:35.048Z,18.90
2023-04-07T09:18:06.968Z,18.70
2023-04-07T09:21:02.746Z,18.60
2023-04-07T09:23:34.873Z,18.70
2023-04-07T09:26:25.912Z,19.70
2023-04-07T09:28:58.288Z,20.20
2023-04-07T09:31:37.785Z,19.40
2023-04-07T09:34:10.777Z,18.50
2023-04-07T09:36:43.965Z,19.70
2023-04-07T09:39:13.529Z,19.00
2023-04-07T09:41:43.117Z,19.60
2023-04-07T09:44:12.795Z,20.60
2023-04-07T09:46:56.388Z,21.40
2023-04-07T09:49:27.381Z,21.20
2023-04-07T09:52:03.941Z,20.90
2023-04-07T09:54:38.951Z,21.40
2023-04-07T09:57:13.906Z,21.60
2023-04-07T09:59:44.746Z,21.30
2023-04-07T10:02:14.466Z,21.40
2023-04-07T10:04:44.372Z,21.40
2023-04-07T10:07:14.415Z,21.80
2023-04-07T10:09:43.970Z,21.90
2023-04-07T10:12:15.462Z,21.70
2023-04-07T10:14:47.325Z,22.20
2023-04-07T10:17:20.626Z,21.90
2023-04-07T10:19:51.937Z,21.90
2023-04-07T10:22:22.365Z,22.50
2023-04-07T10:24:57.612Z,22.60
2023-04-07T10:27:35.969Z,23.10
2023-04-07T10:30:08.220Z,22.90
2023-04-07T10:32:52.824Z,22.50
2023-04-07T10:35:23.779Z,22.60
2023-04-07T10:38:12.175Z,22.50
2023-04-07T10:40:43.941Z,22.90
2023-04-07T10:43:15.284Z,23.00
2023-04-07T10:45:52.209Z,23.60
2023-04-07T10:48:22.936Z,23.80
2023-04-07T10:51:12.087Z,23.70
2023-04-07T10:54:03.508Z,23.20
2023-04-07T10:56:54.008Z,23.80
2023-04-07T10:59:25.230Z,24.50
2023-04-07T11:02:18.502Z,24.40
2023-04-07T11:04:48.858Z,23.10
2023-04-07T11:07:20.218Z,23.60
2023-04-07T11:09:49.774Z,23.80
2023-04-07T11:12:26.842Z,24.10
2023-04-07T11:14:57.078Z,23.30
2023-04-07T11:17:28.526Z,22.20
2023-04-07T11:19:59.111Z,23.70
2023-04-07T11:22:30.441Z,24.10
2023-04-07T11:24:59.657Z,24.50
2023-04-07T11:27:30.613Z,24.90
2023-04-07T11:30:00.706Z,25.10
2023-04-07T11:32:30.660Z,25.30
2023-04-07T11:35:00.246Z,25.30
2023-04-07T11:37:31.976Z,24.70
2023-04-07T11:40:02.038Z,24.80
2023-04-07T11:42:41.442Z,24.90
2023-04-07T11:45:21.433Z,24.30
2023-04-07T11:47:51.284Z,23.90
2023-04-07T11:50:41.169Z,24.10
2023-04-07T11:53:11.088Z,24.40
2023-04-07T11:55:40.631Z,24.60
2023-04-07T11:58:11.491Z,25.10
2023-04-07T12:00:58.476Z,24.80
2023-04-07T12:03:28.935Z,24.70
2023-04-07T12:05:58.899Z,23.60
2023-04-07T12:08:45.594Z,24.00
2023-04-07T12:11:15.056Z,24.00
2023-04-07T12:13:44.523Z,24.50
2023-04-07T12:16:14.181Z,24.20
2023-04-07T12:18:44.208Z,24.80
2023-04-07T12:21:13.750Z,25.40
2023-04-07T12:23:43.246Z,25.40
2023-04-07T12:26:13.433Z,25.10
2023-04-07T12:28:43.097Z,25.30
2023-04-07T12:31:12.598Z,25.00
2023-04-07T12:33:42.072Z,24.90
2023-04-07T12:36:12.320Z,25.00
2023-04-07T12:38:42.729Z,25.60
2023-04-07T12:41:12.970Z,25.80
2023-04-07T12:43:42.623Z,25.50
2023-04-07T12:46:13.529Z,25.00
2023-04-07T12:48:43.217Z,25.40
2023-04-07T12:51:13.077Z,25.20
2023-04-07T12:53:42.619Z,25.40
2023-04-07T12:56:13.719Z,25.70
2023-04-07T12:58:43.345Z,25.20
2023-04-07T13:01:12.867Z,24.90
2023-04-07T13:03:43.935Z,24.00
2023-04-07T13:06:13.792Z,24.70
2023-04-07T13:08:43.457Z,24.70
2023-04-07T13:11:13.553Z,24.80
2023-04-07T13:13:43.039Z,24.70
2023-04-07T13:16:12.658Z,25.20
2023-04-07T13:18:42.744Z,24.80
2023-04-07T13:21:42.734Z,24.90
2023-04-07T13:23:44.414Z,24.90
2023-04-07T13:26:13.955Z,24.70
2023-04-07T13:28:45.199Z,24.70
2023-04-07T13:31:16.531Z,24.50
2023-04-07T13:33:47.080Z,24.40
2023-04-07T13:36:17.081Z,24.40
2023-04-07T13:38:47.322Z,24.60
2023-04-07T13:41:16.799Z,24.70
2023-04-07T13:43:46.356Z,24.70
2023-04-07T13:46:28.097Z,24.50
2023-04-07T13:48:49.597Z,24.50
2023-04-07T13:51:20.443Z,24.30
2023-04-07T13:53:51.824Z,24.20
2023-04-07T13:56:22.848Z,24.00
2023-04-07T13:58:52.574Z,24.30
2023-04-07T14:01:22.394Z,24.40
2023-04-07T14:03:53.233Z,24.40
2023-04-07T14:06:23.810Z,24.30
2023-04-07T14:08:54.263Z,24.20
2023-04-07T14:11:24.464Z,24.00
2023-04-07T14:13:54.383Z,23.20
2023-04-07T14:16:24.166Z,23.40
2023-04-07T14:18:53.684Z,23.40
2023-04-07T14:21:24.585Z,23.70
2023-04-07T14:23:54.604Z,23.40
2023-04-07T14:26:25.160Z,23.30
2023-04-07T14:28:54.643Z,23.60
2023-04-07T14:31:24.214Z,23.40
2023-04-07T14:33:55.469Z,23.30
2023-04-07T14:36:24.915Z,23.40
2023-04-07T14:38:55.608Z,23.20
2023-04-07T14:41:25.932Z,23.30
2023-04-07T14:43:58.974Z,23.20
2023-04-07T14:46:28.564Z,23.30
2023-04-07T14:48:58.659Z,23.20
2023-04-07T14:51:28.859Z,23.30
2023-04-07T14:53:58.347Z,23.30
2023-04-07T14:56:27.816Z,23.20
2023-04-07T14:58:57.565Z,23.00
2023-04-07T15:01:27.081Z,23.10
2023-04-07T15:03:58.447Z,23.10
2023-04-07T15:06:28.471Z,22.70
2023-04-07T15:08:58.450Z,22.80
2023-04-07T15:11:27.930Z,22.60
2023-04-07T15:13:57.413Z,22.70
2023-04-07T15:16:27.568Z,22.70
2023-04-07T15:18:57.114Z,21.90
2023-04-07T15:21:27.106Z,22.00
2023-04-07T15:23:56.673Z,22.10
2023-04-07T15:26:26.215Z,22.30
2023-04-07T15:28:55.880Z,22.30
2023-04-07T15:31:27.107Z,21.90
2023-04-07T15:33:57.158Z,21.40
2023-04-07T15:36:27.423Z,21.20
2023-04-07T15:38:56.962Z,21.30
2023-04-07T15:41:27.513Z,21.60
2023-04-07T15:43:57.580Z,21.60
2023-04-07T15:46:27.404Z,21.80
2023-04-07T15:48:57.080Z,21.70
2023-04-07T15:51:27.680Z,21.50
2023-04-07T15:53:57.524Z,21.60
2023-04-07T15:56:27.905Z,21.50
2023-04-07T15:58:57.360Z,21.60
2023-04-07T16:01:26.881Z,21.30
2023-04-07T16:03:56.714Z,21.30
2023-04-07T16:06:27.626Z,21.40
2023-04-07T16:08:57.091Z,21.30
2023-04-07T16:11:27.530Z,21.00
2023-04-07T16:13:57.002Z,21.00
2023-04-07T16:16:26.616Z,20.60
2023-04-07T16:18:56.626Z,20.50
2023-04-07T16:21:27.494Z,20.70
2023-04-07T16:23:57.505Z,20.90
2023-04-07T16:26:27.155Z,20.60
2023-04-07T16:28:56.624Z,20.30
2023-04-07T16:31:26.254Z,20.20
2023-04-07T16:33:55.795Z,20.00
2023-04-07T16:36:26.604Z,20.20
2023-04-07T16:38:57.689Z,20.10
2023-04-07T16:41:28.548Z,20.10
2023-04-07T16:43:58.098Z,19.90
2023-04-07T16:46:31.487Z,19.90
2023-04-07T16:49:02.645Z,19.90
2023-04-07T16:51:32.626Z,19.80
2023-04-07T16:54:02.095Z,19.80
2023-04-07T16:56:31.648Z,19.80
2023-04-07T16:59:03.377Z,19.50
2023-04-07T17:01:32.565Z,19.30
2023-04-07T17:04:03.008Z,19.10
2023-04-07T17:06:33.148Z,19.20
2023-04-07T17:09:02.764Z,19.20
2023-04-07T17:11:32.769Z,19.10
2023-04-07T17:14:02.772Z,19.10
2023-04-07T17:16:32.327Z,19.00
2023-04-07T17:19:02.013Z,19.00
2023-04-07T17:21:32.026Z,18.90
2023-04-07T17:24:01.639Z,18.90
2023-04-07T17:26:31.648Z,18.90
2023-04-07T17:29:01.746Z,18.80
2023-04-07T17:31:32.267Z,18.60
2023-04-07T17:34:01.893Z,18.60
2023-04-07T17:36:33.426Z,18.50
2023-04-07T17:39:03.403Z,18.40
2023-04-07T17:41:37.725Z,18.30
2023-04-07T17:44:07.226Z,18.20
2023-04-07T17:46:36.784Z,18.20
2023-04-07T17:49:06.605Z,18.10
2023-04-07T17:51:36.080Z,18.10
2023-04-07T17:54:06.516Z,18.00
2023-04-07T17:56:35.986Z,18.10
2023-04-07T17:59:05.742Z,18.00
2023-04-07T18:01:35.739Z,18.00
2023-04-07T18:04:06.612Z,17.90
2023-04-07T18:06:37.481Z,17.70
2023-04-07T18:09:07.532Z,17.70
2023-04-07T18:11:37.704Z,17.70
2023-04-07T18:14:07.264Z,17.70
2023-04-07T18:16:36.796Z,17.60
2023-04-07T18:19:06.903Z,17.50
2023-04-07T18:21:36.441Z,17.40
2023-04-07T18:24:06.228Z,17.40
2023-04-07T18:26:36.777Z,17.30
2023-04-07T18:29:10.061Z,17.30
2023-04-07T18:31:42.595Z,17.20
2023-04-07T18:34:12.897Z,17.20
2023-04-07T18:36:43.115Z,17.20
2023-04-07T18:39:13.560Z,17.20
2023-04-07T18:41:48.405Z,17.20
2023-04-07T18:44:18.467Z,17.10
2023-04-07T18:46:48.309Z,17.00
2023-04-07T18:49:17.888Z,17.00
2023-04-07T18:51:48.284Z,17.00
2023-04-07T18:54:18.607Z,17.00
2023-04-07T18:56:48.552Z,16.90
2023-04-07T18:59:18.029Z,16.90
2023-04-07T19:01:47.978Z,16.70
2023-04-07T19:04:18.249Z,16.70
2023-04-07T19:06:49.819Z,16.70
2023-04-07T19:09:20.543Z,16.60
2023-04-07T19:11:51.528Z,16.40
2023-04-07T19:14:21.799Z,16.40
2023-04-07T19:16:53.064Z,16.40
2023-04-07T19:19:23.884Z,16.40
2023-04-07T19:21:53.794Z,16.40
2023-04-07T19:24:24.123Z,16.40
2023-04-07T19:26:54.242Z,16.40
2023-04-07T19:29:24.167Z,16.30
2023-04-07T19:31:55.749Z,16.30
2023-04-07T19:34:25.924Z,16.20
2023-04-07T19:36:55.942Z,16.20
2023-04-07T19:39:25.447Z,16.20
2023-04-07T19:41:56.793Z,16.20
2023-04-07T19:44:28.405Z,16.10
2023-04-07T19:46:59.700Z,16.10
2023-04-07T19:49:29.413Z,16.10
2023-04-07T19:51:59.357Z,16.00
2023-04-07T19:54:30.260Z,16.00
2023-04-07T19:57:00.377Z,15.90
2023-04-07T19:59:30.087Z,15.90
2023-04-07T20:02:00.050Z,15.70
2023-04-07T20:04:30.547Z,15.80
2023-04-07T20:07:00.450Z,15.70
2023-04-07T20:09:30.574Z,15.70
2023-04-07T20:12:01.990Z,15.70
2023-04-07T20:14:32.261Z,15.60
2023-04-07T20:17:01.837Z,15.60
2023-04-07T20:19:31.721Z,15.60
2023-04-07T20:22:01.778Z,15.50
2023-04-07T20:24:32.107Z,15.50
2023-04-07T20:27:02.437Z,15.40
2023-04-07T20:29:32.145Z,15.40
2023-04-07T20:32:01.861Z,15.30
2023-04-07T20:34:32.378Z,15.30
2023-04-07T20:37:02.495Z,15.20
2023-04-07T20:39:33.035Z,15.20
2023-04-07T20:42:03.326Z,15.20
2023-04-07T20:44:32.918Z,15.10
2023-04-07T20:47:14.954Z,15.10
2023-04-07T20:49:45.183Z,15.00
2023-04-07T20:52:15.095Z,15.10
2023-04-07T20:54:45.619Z,15.00
2023-04-07T20:57:15.146Z,15.00
2023-04-07T20:59:45.040Z,14.90
2023-04-07T21:02:15.038Z,14.80
2023-04-07T21:04:44.873Z,14.80
2023-04-07T21:07:14.781Z,14.80
2023-04-07T21:09:44.581Z,14.80
2023-04-07T21:12:14.791Z,14.80
2023-04-07T21:14:46.574Z,14.70
2023-04-07T21:17:16.507Z,14.70
2023-04-07T21:19:47.230Z,14.60
2023-04-07T21:22:16.822Z,14.60
2023-04-07T21:24:46.667Z,14.50
2023-04-07T21:27:17.693Z,14.50
2023-04-07T21:29:47.337Z,14.50
2023-04-07T21:32:16.799Z,14.50
2023-04-07T21:34:46.300Z,14.50
2023-04-07T21:37:17.851Z,14.40
2023-04-07T21:39:47.354Z,14.30
2023-04-07T21:42:17.683Z,14.30
2023-04-07T21:44:47.699Z,14.30
2023-04-07T21:47:17.926Z,14.20
2023-04-07T21:49:48.242Z,14.20
2023-04-07T21:52:18.220Z,14.20
2023-04-07T21:54:48.275Z,14.10
2023-04-07T21:57:18.331Z,14.10
2023-04-07T21:59:48.337Z,13.90
2023-04-07T22:02:18.292Z,13.60
2023-04-07T22:04:48.650Z,13.60
2023-04-07T22:07:18.872Z,13.60
2023-04-07T22:09:48.990Z,13.60
2023-04-07T22:12:19.112Z,13.70
2023-04-07T22:14:48.848Z,13.70
2023-04-07T22:17:18.530Z,13.70
2023-04-07T22:19:48.035Z,13.50
2023-04-07T22:22:17.957Z,13.50
2023-04-07T22:24:48.273Z,13.40
2023-04-07T22:27:18.154Z,13.30
2023-04-07T22:29:47.694Z,13.50
2023-04-07T22:32:17.645Z,13.50
2023-04-07T22:34:48.134Z,13.50
2023-04-07T22:37:37.303Z,13.40
2023-04-07T22:40:08.918Z,13.50
2023-04-07T22:42:39.993Z,13.40
2023-04-07T22:45:10.559Z,13.40
2023-04-07T22:47:41.222Z,13.30
2023-04-07T22:50:12.017Z,13.30
2023-04-07T22:52:41.573Z,13.30
2023-04-07T22:55:12.231Z,12.90
2023-04-07T22:57:42.166Z,12.10
2023-04-07T23:00:12.759Z,12.60
2023-04-07T23:02:42.961Z,12.90
2023-04-07T23:05:13.115Z,12.90
2023-04-07T23:07:42.832Z,13.00
2023-04-07T23:10:13.354Z,13.00
2023-04-07T23:12:43.273Z,12.90
2023-04-07T23:15:13.593Z,12.90
2023-04-07T23:17:43.339Z,12.80
2023-04-07T23:20:14.242Z,12.90
2023-04-07T23:22:43.745Z,12.90
2023-04-07T23:25:13.486Z,12.80
2023-04-07T23:27:43.618Z,12.80
2023-04-07T23:30:13.976Z,12.80
2023-04-07T23:32:43.882Z,12.70
2023-04-07T23:35:14.136Z,12.60
2023-04-07T23:37:43.851Z,12.40
2023-04-07T23:40:15.203Z,12.20
2023-04-07T23:42:44.701Z,12.20
2023-04-07T23:45:15.435Z,12.30
2023-04-07T23:47:45.396Z,12.40
2023-04-07T23:50:15.468Z,12.40
2023-04-07T23:52:45.409Z,12.40
2023-04-07T23:55:15.302Z,12.40
2023-04-07T23:57:45.366Z,12.40
